Ogden, UT (84401)

1:01 PM MDT on September 01, 2014 (GMT -0600)
Harrisville 1411 | Change Station
CLOSE
Current Station
Personal Weather Station
Location: Ogden, UT
Elevation: 4310 ft
Nearby Weather Stations

Elev 4310 ft 41.26 °N, 111.98 °W | Updated 1 minute ago

Clear
Clear
72.6 °F
Feels Like 77 °F
N
4.0
Wind Variable Wind from South
Gusts 4.0 mph

Today
High -- | Low -- °F
--% Chance of Precip.
Yesterday
High -- | Low -- °F
Precip. -- in
6:54 AM 8:00 PM
Waxing Crescent, 43% visible
Pressure 29.97 in
Visibility 10.0 miles
Clouds Clear
Heat Index 77 °F
Dew Point 41 °F
Humidity 32%
Rainfall 0.00 in
Snow Depth 0 in , 1 in
UV 9 out of 12
Pollen 8.00 out of 12
PM2.5 Good
Flu Activity Not available.
METAR KOGD 011853Z 29006KT 10SM CLR 23/02 A3010 RMK AO2 SLP149 T02280022

More Conditions Fewer Conditions

Pressure 29.97 in
Visibility 10.0 miles
Clouds Clear
Heat Index 77 °F
Dew Point 41 °F
Humidity 32%
Rainfall 0.00 in
Snow Depth 0 in , 1 in
UV 9 out of 12
Pollen 8.00 out of 12
PM2.5 Good
Flu Activity Not available.
METAR KOGD 011853Z 29006KT 10SM CLR 23/02 A3010 RMK AO2 SLP149 T02280022

More Conditions Fewer Conditions

10-Day Weather Forecast

Almanac

Astronomy

Sep. 01, 2014 Rise Set
Actual Time 6:54 AM MDT 8:00 PM MDT
Civil Twilight 6:26 AM MDT 8:29 PM MDT
Nautical Twilight 5:52 AM MDT 9:02 PM MDT
Astronomical Twilight 5:16 AM MDT 9:38 PM MDT
Moon 1:48 PM MDT No Moon Set
Length of Visible Light 14h 02m
Length of Day
13h 06m
Tomorrow will be 2m 38s shorter.
Waxing Crescent, 43% of the Moon is Illuminated
Today
Waxing Crescent
Sep 2
First Quarter
Sep 8
Full
Sep 15
Last Quarter
Sep 24
New

Today's Extremes

State Highs State Lows

Community

WunderPhotos

Upload Photos

1,749,367 photos uploaded!

WunderBlogs® & News

Nearby

Air Quality

  Air Quality AQ Index Pollutant
Yesterday Good
PM10
Yesterday Good
OZONE
Current Good
PM2.5
Monday Moderate
OZONE
Tuesday Moderate
OZONE
Wednesday Moderate
OZONE

Snow Depth

Station Depth Elevation
Ben Lomond Peak 0 in 8000 ft
Ben Lomond Trail 1 in 6000 ft
Parrish Creek 0 in 7740 ft
Louis Meadow 0 in 6700 ft
Dry Fork 0 in 7160 ft

Earthquake Activity

City Distance Mag. Time & Date
No recent earthquake activity has been reported nearby.
Minimum magnitude displayed is 2.5.

Coastal Water Temperatures

Place Temperature
No Stations Reporting

Nearby Weather Stations